Flight Track Log - Related Links

Times and Time Zones

All times are in EDT time to prevent confusion due to time zone crossing. See the N839CA flight status page for this flight to view local times or setup timezone preferences in your user account.

Time Position Orientation Groundspeed Altitude Reporting Facility
EDT Latitude Longitude Course Direction KTS MPH feet Rate Location/Type
Tue 07:48:00 AM 40.4729 -74.5431 232° Southwest  Level Estimated
Tue 07:49:00 AM 40.4288 -74.6177 232° Southwest  Level Estimated
Tue 07:50:00 AM 40.3847 -74.6922 232° Southwest  Level Estimated
Tue 07:51:00 AM 40.3405 -74.7666 232° Southwest  Level Estimated
Tue 07:52:00 AM 40.2963 -74.8409 232° Southwest  Level Estimated
Tue 07:53:00 AM 40.2521 -74.9151 232° Southwest  Level Estimated
Tue 07:54:00 AM 40.2077 -74.9892 232° Southwest  Level Estimated
Tue 07:55:00 AM 40.1634 -75.0632 232° Southwest  Level Estimated
Tue 07:56:00 AM 40.1190 -75.1372 232° Southwest  Level Estimated
Tue 07:57:00 AM 40.0746 -75.2110 232° Southwest  Level Estimated
Tue 07:58:00 AM 40.0301 -75.2847 232° Southwest  Level Estimated
Tue 07:59:00 AM 39.9855 -75.3583 232° Southwest  Level Estimated
Tue 08:00:00 AM 39.9409 -75.4319 232° Southwest  Level Estimated
Tue 08:01:00 AM 39.8963 -75.5053 232° Southwest  Level Estimated
Tue 08:02:00 AM 39.8516 -75.5787 232° Southwest  Level Estimated
Tue 08:03:00 AM 39.8069 -75.6519 232° Southwest  Level Estimated
Tue 08:04:00 AM 39.7621 -75.7250 231° Southwest  Level Estimated
Tue 08:05:00 AM 39.7173 -75.7981 231° Southwest  Level Estimated
Tue 08:06:00 AM 39.6724 -75.8710 231° Southwest  Level Estimated
Tue 08:07:00 AM 39.6275 -75.9439 231° Southwest  Level Estimated
Tue 08:08:00 AM 39.5826 -76.0167 231° Southwest  Level Estimated
Tue 08:09:00 AM 39.5376 -76.0894 231° Southwest  Level Estimated
Tue 08:10:00 AM 39.4925 -76.1619 231° Southwest  Level Estimated
Tue 08:11:00 AM 39.4474 -76.2344 231° Southwest  Level Estimated
Tue 08:12:00 AM 39.4023 -76.3068 231° Southwest  Level Estimated
Tue 08:13:00 AM 39.3571 -76.3791 231° Southwest  Level Estimated
Tue 08:14:00 AM 39.3119 -76.4513 231° Southwest  Level Estimated
Tue 08:15:00 AM 39.2666 -76.5234 231° Southwest  Level Estimated
Tue 08:16:00 AM 39.2213 -76.5955 231° Southwest  Level Estimated
Tue 08:17:00 AM 39.1760 -76.6674 231° Southwest  Level Estimated
Tue 08:18:00 AM 39.1754 -76.6683 231° Southwest  Level Estimated
Tue 08:19:00 AM 39.1754 -76.6683 293° West  Level Estimated
Tue 08:20:00 AM 39.1754 -76.6683 293° West  Level Estimated
Tue 08:21:00 AM 39.1754 -76.6683 293° West  Level Estimated
Tue 08:22:00 AM 39.1754 -76.6683 293° West  Level Estimated
Tue 08:23:00 AM 39.1754 -76.6683 293° West  Level Estimated
Tue 08:24:00 AM 39.1754 -76.6683 293° West  Level Estimated
Tue 08:25:00 AM 39.1754 -76.6683 293° West  Level Estimated
Tue 08:26:00 AM 39.1754 -76.6683 293° West  Level Estimated
Tue 08:27:00 AM 39.1754 -76.6683 293° West  Level Estimated
Tue 08:28:00 AM 39.1754 -76.6683 293° West  Level Estimated
Tue 08:29:00 AM 39.1754 -76.6683 293° West  Level Estimated
Tue 08:30:00 AM 39.1754 -76.6683 293° West  Level Estimated
Tue 08:31:00 AM 39.1754 -76.6683 293° West  Level Estimated
Tue 08:32:00 AM 39.1754 -76.6683 293° West  Level Estimated
Tue 08:33:00 AM 39.1754 -76.6683 293° West  Level Estimated

Login

Don't have an account? Register now (free) for customized features, flight alerts, and more!